createdAt,value
2023-04-17T00:01:36.855Z,989.21
2023-04-17T00:07:07.992Z,989.24
2023-04-17T00:12:39.637Z,989.17
2023-04-17T00:18:11.367Z,989.09
2023-04-17T00:23:43.291Z,989.0
2023-04-17T00:29:21.496Z,989.17
2023-04-17T00:34:56.283Z,989.02
2023-04-17T00:40:24.712Z,988.98
2023-04-17T00:45:56.638Z,988.93
2023-04-17T00:51:28.410Z,988.76
2023-04-17T00:57:00.113Z,988.69
2023-04-17T01:02:32.373Z,988.78
2023-04-17T01:08:03.379Z,988.61
2023-04-17T01:13:35.176Z,988.52
2023-04-17T01:19:06.900Z,988.61
2023-04-17T01:24:38.455Z,988.47
2023-04-17T01:30:16.696Z,988.52
2023-04-17T01:35:48.503Z,988.43
2023-04-17T01:41:20.013Z,988.18
2023-04-17T01:46:51.947Z,988.09
2023-04-17T01:52:23.699Z,988.42
2023-04-17T01:57:55.447Z,988.47
2023-04-17T02:03:28.065Z,988.43
2023-04-17T02:08:58.775Z,988.4
2023-04-17T02:14:30.576Z,988.18
2023-04-17T02:20:02.287Z,987.33
2023-04-17T02:25:34.196Z,987.86
2023-04-17T02:31:10.357Z,988.33
2023-04-17T02:36:42.024Z,988.22
2023-04-17T02:42:13.732Z,987.93
2023-04-17T02:47:45.442Z,988.1
2023-04-17T02:53:17.285Z,988.12
2023-04-17T02:58:48.669Z,988.28
2023-04-17T03:04:20.564Z,988.2
2023-04-17T03:09:52.310Z,988.12
2023-04-17T03:15:24.006Z,988.14
2023-04-17T03:20:55.781Z,988.14
2023-04-17T03:26:27.458Z,988.17
2023-04-17T03:32:05.606Z,988.29
2023-04-17T03:37:37.196Z,988.21
2023-04-17T03:43:08.989Z,988.23
2023-04-17T03:48:40.804Z,988.43
2023-04-17T03:54:12.229Z,988.35
2023-04-17T03:59:43.959Z,988.36
2023-04-17T04:05:15.974Z,988.45
2023-04-17T04:10:47.805Z,988.21
2023-04-17T04:16:19.504Z,988.48
2023-04-17T04:21:50.976Z,988.5
2023-04-17T04:27:22.537Z,988.34
2023-04-17T04:32:59.531Z,988.18
2023-04-17T04:38:30.424Z,988.27
2023-04-17T04:44:02.242Z,988.49
2023-04-17T04:49:34.130Z,988.48
2023-04-17T04:55:05.974Z,988.49
2023-04-17T05:00:37.777Z,988.3
2023-04-17T05:06:09.105Z,988.54
2023-04-17T05:11:41.068Z,988.6
2023-04-17T05:17:12.575Z,988.44
2023-04-17T05:22:44.266Z,988.24
2023-04-17T05:28:17.974Z,988.24
2023-04-17T05:33:52.157Z,988.48
2023-04-17T05:39:23.857Z,988.55
2023-04-17T05:44:55.597Z,988.69
2023-04-17T05:50:27.435Z,988.47
2023-04-17T05:55:59.127Z,988.33
2023-04-17T06:01:30.858Z,988.5
2023-04-17T06:07:02.590Z,988.67
2023-04-17T06:12:34.207Z,988.53
2023-04-17T06:18:06.248Z,988.73
2023-04-17T06:23:37.765Z,988.66
2023-04-17T06:29:09.476Z,988.98
2023-04-17T06:35:00.297Z,988.96
2023-04-17T06:40:17.108Z,989.05
2023-04-17T06:45:49.066Z,988.55
2023-04-17T06:51:20.652Z,988.72
2023-04-17T06:56:52.254Z,988.48
2023-04-17T07:02:25.362Z,988.68
2023-04-17T07:07:55.777Z,988.7
2023-04-17T07:13:27.527Z,988.81
2023-04-17T07:18:59.353Z,989.28
2023-04-17T07:24:30.868Z,988.88
2023-04-17T07:30:02.652Z,989.2
2023-04-17T07:35:38.824Z,989.11
2023-04-17T07:41:10.557Z,989.31
2023-04-17T07:46:42.441Z,989.4
2023-04-17T07:52:14.165Z,989.3
2023-04-17T07:57:45.676Z,989.05
2023-04-17T08:03:18.288Z,989.25
2023-04-17T08:08:49.147Z,989.98
2023-04-17T08:14:20.925Z,989.83
2023-04-17T08:19:52.629Z,989.23
2023-04-17T08:25:24.407Z,989.96
2023-04-17T08:30:56.130Z,990.34
2023-04-17T08:36:34.264Z,990.03
2023-04-17T08:42:05.925Z,990.01
2023-04-17T08:47:37.807Z,989.97
2023-04-17T08:53:09.269Z,990.2
2023-04-17T08:58:41.035Z,989.78
2023-04-17T09:04:13.332Z,989.96
2023-04-17T09:09:44.522Z,990.29
2023-04-17T09:15:16.307Z,990.55
2023-04-17T09:20:48.475Z,990.46
2023-04-17T09:26:19.662Z,990.44
2023-04-17T09:31:51.597Z,990.82
2023-04-17T09:37:27.610Z,990.68
2023-04-17T09:42:59.361Z,990.69
2023-04-17T09:48:30.909Z,990.86
2023-04-17T09:54:02.574Z,990.78
2023-04-17T09:59:34.599Z,990.63
2023-04-17T10:05:06.210Z,990.7
2023-04-17T10:10:37.986Z,990.92
2023-04-17T10:16:10.231Z,991.13
2023-04-17T10:21:41.356Z,990.84
2023-04-17T10:27:13.317Z,991.1
2023-04-17T10:32:44.960Z,990.78
2023-04-17T10:38:23.161Z,990.28
2023-04-17T10:43:55.030Z,990.53
2023-04-17T10:49:26.568Z,990.58
2023-04-17T10:54:58.296Z,990.7
2023-04-17T11:00:30.466Z,990.53
2023-04-17T11:06:02.009Z,990.6
2023-04-17T11:11:45.747Z,990.69
2023-04-17T11:17:05.365Z,990.28
2023-04-17T11:22:36.886Z,990.23
2023-04-17T11:28:08.778Z,990.61
2023-04-17T11:33:40.567Z,990.01
2023-04-17T11:39:16.907Z,990.6
2023-04-17T11:44:48.128Z,990.31
2023-04-17T11:50:19.833Z,990.23
2023-04-17T11:55:52.015Z,990.24
2023-04-17T12:01:23.521Z,990.66
2023-04-17T12:06:55.077Z,990.57
2023-04-17T12:12:26.912Z,990.37
2023-04-17T12:17:58.842Z,990.54
2023-04-17T12:23:30.410Z,991.27
2023-04-17T12:29:02.330Z,991.4
2023-04-17T12:34:34.676Z,990.92
2023-04-17T12:40:10.202Z,991.18
2023-04-17T12:45:43.495Z,990.47
2023-04-17T12:51:13.362Z,990.52
2023-04-17T12:56:45.374Z,989.41
2023-04-17T13:02:17.313Z,989.93
2023-04-17T13:07:48.870Z,989.66
2023-04-17T13:13:20.273Z,990.22
2023-04-17T13:18:52.059Z,989.64
2023-04-17T13:24:23.979Z,989.71
2023-04-17T13:29:55.468Z,989.19
2023-04-17T13:35:27.259Z,989.44
2023-04-17T13:41:03.236Z,989.36
2023-04-17T13:46:35.086Z,989.24
2023-04-17T13:52:06.847Z,989.42
2023-04-17T13:57:38.518Z,989.07
2023-04-17T14:03:10.528Z,989.41
2023-04-17T14:08:45.044Z,989.4
2023-04-17T14:14:13.833Z,989.43
2023-04-17T14:19:45.466Z,989.29
2023-04-17T14:25:17.048Z,989.49
2023-04-17T14:30:48.787Z,989.01
2023-04-17T14:36:20.570Z,989.31
2023-04-17T14:41:56.647Z,989.12
2023-04-17T14:47:30.819Z,989.01
2023-04-17T14:53:00.361Z,989.41
2023-04-17T14:58:31.964Z,989.21
2023-04-17T15:04:04.275Z,989.03
2023-04-17T15:09:35.201Z,988.98
2023-04-17T15:15:07.513Z,988.57
2023-04-17T15:20:38.782Z,988.53
2023-04-17T15:26:10.618Z,988.69
2023-04-17T15:31:43.063Z,988.03
2023-04-17T15:37:14.096Z,988.26
2023-04-17T15:42:52.056Z,988.02
2023-04-17T15:48:23.921Z,988.53
2023-04-17T15:53:55.540Z,988.38
2023-04-17T15:59:27.817Z,988.35
2023-04-17T16:04:59.137Z,988.32
2023-04-17T16:10:31.344Z,988.09
2023-04-17T16:16:02.700Z,988.33
2023-04-17T16:21:34.247Z,987.59
2023-04-17T16:27:05.654Z,987.92
2023-04-17T16:32:37.876Z,987.59
2023-04-17T16:38:09.358Z,987.77
2023-04-17T16:43:47.349Z,987.63
2023-04-17T16:49:19.168Z,987.06
2023-04-17T16:54:51.002Z,987.16
2023-04-17T17:00:22.746Z,987.7
2023-04-17T17:05:54.675Z,987.63
2023-04-17T17:11:25.981Z,987.46
2023-04-17T17:16:58.223Z,987.71
2023-04-17T17:22:29.538Z,987.86
2023-04-17T17:28:01.612Z,987.71
2023-04-17T17:33:33.515Z,987.53
2023-04-17T17:39:05.004Z,987.56
2023-04-17T17:44:42.900Z,987.49
2023-04-17T17:50:14.747Z,987.5
2023-04-17T17:55:46.467Z,987.45
2023-04-17T18:01:18.107Z,987.51
2023-04-17T18:06:50.034Z,987.26
2023-04-17T18:12:21.583Z,987.19
2023-04-17T18:17:53.652Z,986.98
2023-04-17T18:23:24.967Z,986.95
2023-04-17T18:28:56.845Z,986.87
2023-04-17T18:34:28.719Z,986.71
2023-04-17T18:40:00.066Z,986.88
2023-04-17T18:45:38.282Z,986.79
2023-04-17T18:51:09.995Z,986.76
2023-04-17T18:56:41.702Z,986.8
2023-04-17T19:02:13.692Z,986.95
2023-04-17T19:07:45.096Z,986.77
2023-04-17T19:13:16.870Z,986.9
2023-04-17T19:18:48.691Z,986.88
2023-04-17T19:24:20.441Z,986.69
2023-04-17T19:29:52.012Z,986.66
2023-04-17T19:35:23.770Z,986.67
2023-04-17T19:40:55.904Z,986.39
2023-04-17T19:46:33.537Z,986.38
2023-04-17T19:52:05.386Z,986.21
2023-04-17T19:57:37.360Z,986.13
2023-04-17T20:03:09.537Z,985.8
2023-04-17T20:08:40.403Z,985.82
2023-04-17T20:14:12.873Z,985.57
2023-04-17T20:19:43.988Z,985.39
2023-04-17T20:25:15.720Z,985.28
2023-04-17T20:30:47.892Z,985.28
2023-04-17T20:36:19.367Z,984.95
2023-04-17T20:41:50.931Z,985.04
2023-04-17T20:47:29.385Z,985.03
2023-04-17T20:53:00.945Z,985.01
2023-04-17T20:58:32.324Z,984.66
2023-04-17T21:04:04.315Z,984.36
2023-04-17T21:09:36.006Z,984.6
2023-04-17T21:15:07.806Z,984.53
2023-04-17T21:20:39.302Z,984.42
2023-04-17T21:26:11.260Z,984.23
2023-04-17T21:31:42.963Z,984.08
2023-04-17T21:37:14.708Z,984.28
2023-04-17T21:42:46.235Z,984.48
2023-04-17T21:48:24.336Z,984.66
2023-04-17T21:53:56.165Z,984.79
2023-04-17T21:59:27.969Z,984.71
2023-04-17T22:04:59.839Z,984.73
2023-04-17T22:10:31.215Z,984.63
2023-04-17T22:16:03.065Z,984.44
2023-04-17T22:21:35.601Z,984.62
2023-04-17T22:27:06.540Z,984.69
2023-04-17T22:32:38.295Z,984.7
2023-04-17T22:38:10.108Z,984.52
2023-04-17T22:43:41.625Z,984.82
2023-04-17T22:49:18.708Z,984.74
2023-04-17T22:54:49.464Z,984.76
2023-04-17T23:00:21.330Z,984.84
2023-04-17T23:05:53.035Z,984.93
2023-04-17T23:11:24.908Z,984.78
2023-04-17T23:16:56.414Z,984.88
2023-04-17T23:22:28.409Z,984.74
2023-04-17T23:27:59.762Z,984.73
2023-04-17T23:33:31.606Z,984.56
2023-04-17T23:39:03.219Z,984.66
2023-04-17T23:44:34.979Z,984.73
2023-04-17T23:50:11.125Z,984.54
2023-04-17T23:55:43.121Z,984.62
